Portada
METAR-TAF:

METAR-TAF

Aeroports :

Tulcea, Romania

latitud: 45-11N, longitud: 028-49E, altitud: 4 m

Observació

L'informe es va fer fa 31 minuts, a les 18:00 UTC
Vent 6 kt del Sud
Temperatura 4°C
Humitat 87%
Pressió 1024 hPa
Visibilitat 10 km o més

METAR: LRTC 171800Z AUTO 17006KT 9999 NCD 04/02 Q1024

Hora: 20:31 (18:31 UTC)

Pronòstic

L'informe es va fer fa 7 hores i 31 minuts, a les 11:00 UTC
Pronòstic vàlid del 17 a les 12 UTC al 17 a les 21 UTC
Vent 12 kt del Sud
Visibilitat 10 km o més
sense núvols per sota de 1500 mi sense presència de cumulonimbus.

TAF: LRTC 171100Z 1712/1721 18012KT CAVOK

Observacions i pronòstics meteorològics de més de 4000 aeroports (METAR i TAF).

Les estacions disponibles són els punts grocs i vermells al mapa.

Posi el ratolí al punt desitjat per veure el nom de l'estació.

Feu clic per veure les observacions i els pronòstics meteorològics.

Per canviar el mapa: feu clic els botons verds amb una creu de color negre per apropar; al botó verd amb un guió per allunyar la imatge; o en les fletxes verdes per a mapes adjacents.


METAR-TAF: